Time;durP1;ratioP1;P1;durP2;ratioP2;P2;SDS_P1;SDS_P2;PMS_P1;PMS_P2;Temp;Humidity;BMP_temperature;BMP_pressure;BME280_temperature;BME280_humidity;BME280_pressure;Samples;Min_cycle;Max_cycle;Signal;HPM_P1;HPM_P2
2021/01/11 00:00:32;;;;;;;1.80;1.25;;;21.00;49.10;;;;;;4949780;28;20050;-65
2021/01/11 00:02:58;;;;;;;1.80;1.10;;;20.90;49.00;;;;;;4955127;28;20498;-65
2021/01/11 00:05:26;;;;;;;1.92;1.30;;;20.90;49.50;;;;;;4961786;28;20027;-63
2021/01/11 00:07:52;;;;;;;1.90;1.30;;;20.90;49.00;;;;;;4962856;28;20027;-64
2021/01/11 00:10:18;;;;;;;2.10;1.30;;;20.90;49.00;;;;;;4965858;28;20043;-64
2021/01/11 00:12:44;;;;;;;1.75;1.23;;;20.90;49.00;;;;;;4966688;28;20034;-64
2021/01/11 00:15:13;;;;;;;1.30;1.00;;;20.90;49.10;;;;;;4966588;28;20429;-64
2021/01/11 00:17:38;;;;;;;2.05;1.13;;;20.90;49.10;;;;;;4962233;28;20031;-65
2021/01/11 00:20:06;;;;;;;2.03;1.30;;;20.90;49.00;;;;;;4961969;28;20031;-65
2021/01/11 00:22:32;;;;;;;2.15;1.13;;;20.80;49.50;;;;;;4955457;28;20111;-64
2021/01/11 00:24:58;;;;;;;2.20;1.10;;;20.80;49.00;;;;;;4957027;28;20023;-66
2021/01/11 00:27:23;;;;;;;2.17;1.45;;;20.80;49.00;;;;;;4957859;28;20670;-63
2021/01/11 00:29:49;;;;;;;2.08;1.20;;;20.80;49.00;;;;;;4962874;28;20153;-64
2021/01/11 00:32:15;;;;;;;1.92;1.20;;;20.80;49.00;;;;;;4963478;28;20050;-64
2021/01/11 00:34:40;;;;;;;2.67;1.20;;;20.70;49.00;;;;;;4962721;28;20062;-65
2021/01/11 00:37:06;;;;;;;2.03;1.23;;;20.70;49.00;;;;;;4964972;28;20093;-63
2021/01/11 00:39:31;;;;;;;2.30;1.30;;;20.70;49.00;;;;;;4961905;28;20083;-64
2021/01/11 00:42:01;;;;;;;1.70;1.20;;;20.70;49.00;;;;;;4949754;28;20293;-63
2021/01/11 00:44:27;;;;;;;;;;;20.70;49.00;;;;;;4951652;28;20563;-64
2021/01/11 00:46:58;;;;;;;1.60;1.10;;;20.70;49.00;;;;;;4960039;28;19923;-64
2021/01/11 00:49:24;;;;;;;1.80;1.17;;;20.70;49.00;;;;;;4962931;28;20027;-63
2021/01/11 00:51:49;;;;;;;2.05;1.20;;;20.60;48.90;;;;;;4962325;28;20465;-63
2021/01/11 00:54:15;;;;;;;2.28;1.20;;;20.60;48.90;;;;;;4962811;28;20267;-63
2021/01/11 00:56:40;;;;;;;1.83;1.20;;;20.60;49.00;;;;;;4953381;28;20466;-63
2021/01/11 00:59:06;;;;;;;1.85;1.20;;;20.60;49.00;;;;;;4943433;28;20427;-64
2021/01/11 01:01:31;;;;;;;1.90;1.20;;;20.60;49.00;;;;;;4962885;28;20039;-65
2021/01/11 01:03:57;;;;;;;2.40;1.30;;;20.60;49.00;;;;;;4968132;28;20026;-64
2021/01/11 01:06:23;;;;;;;2.47;1.33;;;20.60;49.00;;;;;;4962781;28;20489;-63
2021/01/11 01:08:49;;;;;;;2.05;1.30;;;20.50;48.90;;;;;;4964252;28;20028;-63
2021/01/11 01:11:14;;;;;;;2.00;1.20;;;20.50;49.00;;;;;;4962208;28;20058;-63
2021/01/11 01:13:40;;;;;;;2.00;1.17;;;20.50;49.10;;;;;;4968673;28;20031;-64
2021/01/11 01:16:05;;;;;;;1.48;1.10;;;20.50;49.10;;;;;;4958211;28;20041;-62
2021/01/11 01:18:32;;;;;;;1.77;1.15;;;20.50;49.10;;;;;;4962309;28;20073;-65
2021/01/11 01:20:57;;;;;;;1.80;1.20;;;20.50;49.30;;;;;;4956086;28;20038;-64
2021/01/11 01:23:24;;;;;;;2.20;1.20;;;20.50;49.10;;;;;;4968874;28;20034;-65
2021/01/11 01:25:49;;;;;;;2.17;1.23;;;20.50;49.10;;;;;;4969030;28;20113;-65
2021/01/11 01:28:15;;;;;;;1.40;1.00;;;20.40;49.00;;;;;;4965335;28;20146;-65
2021/01/11 01:30:40;;;;;;;2.58;1.48;;;20.40;49.00;;;;;;4959250;28;20027;-64
2021/01/11 01:33:06;;;;;;;2.08;1.30;;;20.40;49.00;;;;;;4964215;28;20560;-65
2021/01/11 01:35:32;;;;;;;2.53;1.40;;;20.40;49.00;;;;;;4968298;28;20045;-66
2021/01/11 01:37:57;;;;;;;1.55;1.17;;;20.40;49.10;;;;;;4955908;28;20412;-65
2021/01/11 01:40:24;;;;;;;2.13;1.30;;;20.40;49.10;;;;;;4957974;28;20115;-66
2021/01/11 01:42:51;;;;;;;1.90;1.27;;;20.40;49.10;;;;;;4963906;28;20042;-64
2021/01/11 01:45:17;;;;;;;1.92;1.33;;;20.40;49.10;;;;;;4963829;28;20454;-65
2021/01/11 01:47:43;;;;;;;1.95;1.10;;;20.30;49.10;;;;;;4967278;28;20034;-66
2021/01/11 01:50:10;;;;;;;1.90;1.20;;;20.30;49.10;;;;;;4964689;28;20027;-65
2021/01/11 01:52:38;;;;;;;1.77;1.25;;;20.30;49.10;;;;;;4968673;28;20389;-66
2021/01/11 01:55:09;;;;;;;2.03;1.40;;;20.30;49.10;;;;;;4968308;28;20031;-64
2021/01/11 01:57:35;;;;;;;1.70;1.23;;;20.30;49.10;;;;;;4956688;28;20459;-66
2021/01/11 02:00:03;;;;;;;2.05;1.10;;;20.30;49.10;;;;;;4954736;28;20062;-64
2021/01/11 02:02:29;;;;;;;2.53;1.20;;;20.30;49.10;;;;;;4965242;28;20034;-64
2021/01/11 02:04:54;;;;;;;1.65;1.15;;;20.30;49.10;;;;;;4963813;28;20023;-65
2021/01/11 02:07:46;;;;;;;2.40;1.23;;;20.30;49.10;;;;;;4967920;28;20115;-64
2021/01/11 02:10:36;;;;;;;1.77;1.10;;;20.20;49.10;;;;;;4963982;28;20042;-64
2021/01/11 02:13:01;;;;;;;;;;;20.20;49.10;;;;;;4963128;28;20065;-66
2021/01/11 02:15:35;;;;;;;1.42;1.10;;;20.20;49.10;;;;;;4967717;28;19962;-66
2021/01/11 02:18:07;;;;;;;1.60;1.10;;;20.20;49.10;;;;;;4967167;28;20321;-65
2021/01/11 02:21:23;;;;;;;1.85;1.15;;;20.20;49.20;;;;;;4966103;28;20585;-64
2021/01/11 02:24:34;;;;;;;1.48;1.02;;;20.20;49.20;;;;;;4947436;28;20394;-64
2021/01/11 02:27:34;;;;;;;1.45;1.10;;;20.20;49.20;;;;;;4963997;28;20402;-65
2021/01/11 02:30:08;;;;;;;1.60;1.10;;;20.20;49.20;;;;;;4950637;28;20194;-64
2021/01/11 02:32:35;;;;;;;1.60;1.17;;;20.10;49.20;;;;;;4962164;28;20481;-63
2021/01/11 02:35:04;;;;;;;1.50;1.00;;;20.10;49.20;;;;;;4963775;28;20113;-64
2021/01/11 02:37:31;;;;;;;1.90;1.23;;;20.10;49.20;;;;;;4968033;28;20035;-63
2021/01/11 02:39:57;;;;;;;1.90;1.23;;;20.10;49.20;;;;;;4961836;28;20062;-65
2021/01/11 02:42:22;;;;;;;2.08;1.30;;;20.10;49.20;;;;;;4966894;28;20335;-64
2021/01/11 02:44:48;;;;;;;1.55;1.10;;;20.10;49.20;;;;;;4968457;28;20039;-64
2021/01/11 02:47:22;;;;;;;2.33;1.40;;;20.10;49.30;;;;;;4967020;28;20035;-63
2021/01/11 02:49:52;;;;;;;1.48;1.13;;;20.10;49.30;;;;;;4956028;28;20104;-64
2021/01/11 02:52:23;;;;;;;1.67;1.10;;;20.10;49.30;;;;;;4966828;28;20110;-63
2021/01/11 02:54:59;;;;;;;1.33;1.08;;;20.10;49.30;;;;;;4958738;28;20078;-64
2021/01/11 02:57:34;;;;;;;1.50;0.98;;;20.10;49.30;;;;;;4965695;28;20066;-63
2021/01/11 03:00:04;;;;;;;1.83;1.17;;;20.10;49.30;;;;;;4972806;28;20066;-63
2021/01/11 03:02:33;;;;;;;1.80;1.20;;;20.00;49.30;;;;;;4967393;28;20034;-63
2021/01/11 03:05:01;;;;;;;2.13;1.15;;;20.00;49.30;;;;;;4963748;28;20054;-63
2021/01/11 03:07:26;;;;;;;1.70;1.15;;;20.00;49.30;;;;;;4946946;28;20303;-65
2021/01/11 03:09:52;;;;;;;1.50;1.10;;;20.00;49.30;;;;;;4962585;28;20110;-65
2021/01/11 03:12:18;;;;;;;1.80;1.10;;;20.00;49.30;;;;;;4962868;28;20500;-64
2021/01/11 03:14:44;;;;;;;1.48;1.10;;;20.00;49.30;;;;;;4981342;28;20117;-64
2021/01/11 03:17:09;;;;;;;2.25;1.40;;;20.00;49.30;;;;;;4967470;28;20026;-64
2021/01/11 03:19:35;;;;;;;1.75;1.10;;;20.00;49.30;;;;;;4964228;28;20121;-64
2021/01/11 03:22:01;;;;;;;1.70;1.17;;;20.00;49.40;;;;;;4966725;28;20552;-63
2021/01/11 03:24:27;;;;;;;1.50;1.10;;;20.00;49.40;;;;;;4966794;28;20042;-65
2021/01/11 03:26:53;;;;;;;1.58;1.10;;;20.00;49.40;;;;;;4966743;28;20022;-64
2021/01/11 03:29:19;;;;;;;1.60;1.10;;;20.00;49.40;;;;;;4963320;28;20031;-63
2021/01/11 03:31:46;;;;;;;1.83;1.20;;;20.00;49.40;;;;;;4962965;28;20027;-63
2021/01/11 03:34:12;;;;;;;1.60;1.00;;;20.00;49.50;;;;;;4959554;28;20114;-65
2021/01/11 03:36:39;;;;;;;1.42;1.00;;;19.90;49.40;;;;;;4959763;28;20042;-63
2021/01/11 03:39:06;;;;;;;1.48;1.00;;;19.90;49.40;;;;;;4964012;28;20061;-63
2021/01/11 03:41:38;;;;;;;1.38;1.10;;;19.90;49.40;;;;;;4965664;28;20630;-64
2021/01/11 03:44:05;;;;;;;1.52;1.05;;;19.90;49.40;;;;;;4968118;28;20034;-64
2021/01/11 03:46:30;;;;;;;2.10;1.08;;;19.90;49.50;;;;;;4957460;28;20023;-65
2021/01/11 03:48:56;;;;;;;1.75;1.00;;;19.90;49.50;;;;;;4955306;28;20050;-64
2021/01/11 03:51:22;;;;;;;1.63;1.20;;;19.90;49.50;;;;;;4954622;28;20094;-64
2021/01/11 03:53:48;;;;;;;1.67;1.13;;;19.90;49.50;;;;;;4959913;28;20026;-65
2021/01/11 03:56:13;;;;;;;1.65;1.10;;;19.90;49.50;;;;;;4965604;28;20468;-64
2021/01/11 03:58:39;;;;;;;1.40;1.02;;;19.90;49.50;;;;;;4960096;28;20362;-65
2021/01/11 04:01:05;;;;;;;1.63;0.98;;;19.90;49.60;;;;;;4957962;28;20735;-65
2021/01/11 04:03:30;;;;;;;1.40;1.00;;;19.80;49.50;;;;;;4955838;28;20545;-66
2021/01/11 04:05:57;;;;;;;1.75;1.10;;;19.80;49.60;;;;;;4965293;28;20241;-65
2021/01/11 04:08:24;;;;;;;1.45;1.05;;;19.80;49.60;;;;;;4961827;28;20050;-63
2021/01/11 04:10:50;;;;;;;2.08;1.10;;;19.80;49.60;;;;;;4961925;28;20431;-64
2021/01/11 04:13:16;;;;;;;2.53;1.33;;;19.80;49.60;;;;;;4964633;28;20043;-65
2021/01/11 04:15:42;;;;;;;1.73;1.10;;;19.80;49.60;;;;;;4960915;28;20035;-63
2021/01/11 04:18:08;;;;;;;1.52;1.10;;;19.80;49.70;;;;;;4952981;28;20042;-64
2021/01/11 04:20:33;;;;;;;1.58;1.10;;;19.80;49.70;;;;;;4949703;28;20031;-65
2021/01/11 04:23:00;;;;;;;1.50;1.00;;;19.80;49.70;;;;;;4958683;28;20240;-66
2021/01/11 04:25:26;;;;;;;1.88;1.30;;;19.80;49.70;;;;;;4958179;28;20046;-66
2021/01/11 04:27:52;;;;;;;1.80;1.20;;;19.80;49.70;;;;;;4965582;28;20107;-65
2021/01/11 04:30:18;;;;;;;1.67;1.20;;;19.70;49.70;;;;;;4952444;28;20117;-63
2021/01/11 04:32:45;;;;;;;1.73;1.13;;;19.80;49.80;;;;;;4954968;28;20415;-64
2021/01/11 04:35:11;;;;;;;1.67;1.20;;;19.70;49.70;;;;;;4961670;28;20034;-65
2021/01/11 04:37:37;;;;;;;1.77;1.30;;;19.70;49.80;;;;;;4969995;28;20138;-66
2021/01/11 04:40:05;;;;;;;1.92;1.20;;;19.70;49.80;;;;;;4965685;28;20151;-64
2021/01/11 04:42:56;;;;;;;1.42;1.10;;;19.70;49.80;;;;;;4957929;28;20489;-64
2021/01/11 04:45:23;;;;;;;1.90;1.30;;;19.80;49.90;;;;;;4957753;28;20074;-65
2021/01/11 04:47:55;;;;;;;1.70;1.20;;;19.70;49.80;;;;;;4953259;28;20038;-64
2021/01/11 04:50:22;;;;;;;2.03;1.20;;;19.70;49.80;;;;;;4959353;28;20023;-64
2021/01/11 04:52:48;;;;;;;1.60;1.20;;;19.70;49.80;;;;;;4961317;28;20059;-65
2021/01/11 04:55:14;;;;;;;1.55;1.20;;;19.70;49.80;;;;;;4951665;28;20027;-64
2021/01/11 04:57:51;;;;;;;2.20;1.30;;;19.70;49.80;;;;;;4966078;28;20031;-64
2021/01/11 05:00:23;;;;;;;2.10;1.30;;;19.70;49.80;;;;;;4954537;28;20410;-64
2021/01/11 05:03:00;;;;;;;1.77;1.20;;;19.70;49.80;;;;;;4961968;28;20039;-63
2021/01/11 05:05:28;;;;;;;2.17;1.15;;;19.70;49.80;;;;;;4960110;28;20035;-65
2021/01/11 05:07:54;;;;;;;1.70;1.30;;;19.70;49.90;;;;;;4956822;28;20030;-64
2021/01/11 05:10:31;;;;;;;2.00;1.30;;;19.70;49.90;;;;;;4947598;28;20041;-63
2021/01/11 05:12:58;;;;;;;1.63;1.13;;;19.70;49.80;;;;;;4961922;28;20035;-64
2021/01/11 05:15:29;;;;;;;1.77;1.10;;;19.70;49.90;;;;;;4961668;28;20379;-66
2021/01/11 05:17:55;;;;;;;1.92;1.20;;;19.70;49.90;;;;;;4963708;28;20173;-64
2021/01/11 05:20:23;;;;;;;1.65;1.20;;;19.70;49.90;;;;;;4957051;28;20081;-63
2021/01/11 05:22:49;;;;;;;1.77;1.30;;;19.70;49.90;;;;;;4968961;28;20050;-63
2021/01/11 05:25:17;;;;;;;1.83;1.27;;;19.70;49.90;;;;;;4971689;28;20307;-66
2021/01/11 05:27:45;;;;;;;1.90;1.30;;;19.70;49.90;;;;;;4964839;28;20322;-65
2021/01/11 05:30:29;;;;;;;2.35;1.50;;;19.70;49.80;;;;;;4960710;28;20030;-63
2021/01/11 05:32:55;;;;;;;2.03;1.35;;;19.70;49.80;;;;;;4962543;28;20083;-63
2021/01/11 05:35:22;;;;;;;1.60;1.20;;;19.70;49.80;;;;;;4970056;28;20600;-65
2021/01/11 05:37:48;;;;;;;2.08;1.30;;;19.70;49.80;;;;;;4965332;28;20119;-65
2021/01/11 05:40:16;;;;;;;2.05;1.40;;;19.80;49.90;;;;;;4951791;28;20126;-63
2021/01/11 05:42:47;;;;;;;1.75;1.17;;;19.80;49.90;;;;;;4962266;28;20030;-65
2021/01/11 05:45:20;;;;;;;2.22;1.38;;;19.70;49.80;;;;;;4962227;28;20019;-64
2021/01/11 05:47:59;;;;;;;2.08;1.30;;;19.70;49.80;;;;;;4950940;28;20035;-64
2021/01/11 05:50:38;;;;;;;2.22;1.40;;;19.70;49.90;;;;;;4953875;28;20027;-62
2021/01/11 05:53:05;;;;;;;2.03;1.40;;;19.70;49.80;;;;;;4966067;28;20027;-64
2021/01/11 05:55:32;;;;;;;1.88;1.20;;;19.70;49.90;;;;;;4965510;28;20113;-61
2021/01/11 05:58:05;;;;;;;2.67;1.40;;;19.70;49.90;;;;;;4966284;28;20457;-63
2021/01/11 06:00:36;;;;;;;2.10;1.20;;;19.70;50.00;;;;;;4957704;28;20386;-63
2021/01/11 06:03:04;;;;;;;1.83;1.20;;;19.70;50.00;;;;;;4965530;28;20104;-65
2021/01/11 06:05:31;;;;;;;1.70;1.23;;;19.70;50.00;;;;;;4967285;28;20037;-64
2021/01/11 06:07:58;;;;;;;2.13;1.35;;;19.70;50.00;;;;;;4961552;28;20050;-64
2021/01/11 06:10:25;;;;;;;1.40;1.13;;;19.70;50.00;;;;;;4959166;28;20594;-63
2021/01/11 06:12:51;;;;;;;2.08;1.42;;;19.70;50.00;;;;;;4959242;28;20357;-62
2021/01/11 06:15:21;;;;;;;2.05;1.45;;;19.70;50.00;;;;;;4967976;28;20414;-64
2021/01/11 06:17:48;;;;;;;2.00;1.40;;;19.70;50.00;;;;;;4976696;28;20426;-65
2021/01/11 06:20:25;;;;;;;2.25;1.50;;;19.70;50.00;;;;;;4954622;28;20069;-62
2021/01/11 06:22:51;;;;;;;2.20;1.50;;;19.70;50.10;;;;;;4968919;28;20125;-63
2021/01/11 06:25:22;;;;;;;2.40;1.80;;;19.70;50.10;;;;;;4950347;28;20461;-65
2021/01/11 06:28:02;;;;;;;2.70;1.90;;;19.70;51.00;;;;;;4955361;28;20050;-65
2021/01/11 06:30:38;;;;;;;2.22;1.80;;;19.90;51.00;;;;;;4978169;28;20463;-65
2021/01/11 06:33:09;;;;;;;3.58;1.70;;;20.10;50.80;;;;;;4966929;28;20037;-65
2021/01/11 06:35:48;;;;;;;2.50;1.70;;;20.20;50.60;;;;;;4970399;28;20054;-65
2021/01/11 06:38:26;;;;;;;2.33;1.70;;;20.30;50.10;;;;;;4966583;28;20027;-66
2021/01/11 06:41:09;;;;;;;3.45;1.65;;;20.40;49.80;;;;;;4981072;28;20031;-65
2021/01/11 06:43:38;;;;;;;3.58;1.60;;;20.60;49.70;;;;;;4968602;28;20417;-66
2021/01/11 06:46:04;;;;;;;3.38;1.80;;;20.70;49.30;;;;;;4959657;28;20034;-65
2021/01/11 06:48:33;;;;;;;2.72;1.55;;;20.80;49.10;;;;;;4952505;28;20365;-65
2021/01/11 06:51:10;;;;;;;2.97;1.90;;;20.90;48.80;;;;;;4964303;28;20031;-65
2021/01/11 06:53:39;;;;;;;2.90;1.73;;;21.10;48.60;;;;;;4962023;28;20053;-66
2021/01/11 06:56:12;;;;;;;2.28;1.67;;;21.20;48.40;;;;;;4955914;28;20035;-65
2021/01/11 06:58:41;;;;;;;2.90;1.55;;;21.30;48.30;;;;;;4958302;28;20042;-63
2021/01/11 07:01:11;;;;;;;2.50;1.80;;;21.40;48.50;;;;;;4962194;28;20202;-66
2021/01/11 07:03:43;;;;;;;2.30;1.60;;;21.50;47.80;;;;;;4965162;28;20054;-64
2021/01/11 07:06:32;;;;;;;2.42;1.60;;;21.60;47.80;;;;;;4967985;28;20038;-64
2021/01/11 07:09:13;;;;;;;2.42;1.80;;;21.70;47.50;;;;;;4961572;28;20027;-64
2021/01/11 07:11:41;;;;;;;2.10;1.40;;;21.90;47.20;;;;;;4966742;28;20089;-64
2021/01/11 07:14:08;;;;;;;3.58;1.52;;;22.00;47.10;;;;;;4964731;28;20088;-65
2021/01/11 07:16:53;;;;;;;2.22;1.60;;;22.10;47.00;;;;;;4965662;28;20062;-66
2021/01/11 07:19:37;;;;;;;2.42;1.70;;;22.10;46.80;;;;;;4957427;28;20107;-67
2021/01/11 07:22:09;;;;;;;2.08;1.30;;;22.20;46.80;;;;;;4958165;28;20393;-66
2021/01/11 07:24:38;;;;;;;1.92;1.40;;;22.20;46.80;;;;;;4963024;28;20034;-66
2021/01/11 07:27:04;;;;;;;1.65;1.23;;;22.10;46.90;;;;;;4964073;28;20026;-65
2021/01/11 07:29:30;;;;;;;1.83;1.20;;;22.00;47.20;;;;;;4957625;28;20039;-66
2021/01/11 07:31:55;;;;;;;2.30;1.40;;;21.90;47.20;;;;;;4961592;28;20074;-65
2021/01/11 07:34:24;;;;;;;1.85;1.25;;;21.90;47.40;;;;;;4950986;28;20482;-68
2021/01/11 07:36:55;;;;;;;2.00;1.30;;;21.90;47.40;;;;;;4967103;28;20118;-67
2021/01/11 07:39:26;;;;;;;2.88;1.40;;;21.90;47.40;;;;;;4958238;28;20541;-68
2021/01/11 07:42:05;;;;;;;1.92;1.30;;;21.90;47.50;;;;;;4968592;28;20146;-66
2021/01/11 07:44:33;;;;;;;1.83;1.42;;;21.80;47.50;;;;;;4956170;28;20053;-64
2021/01/11 07:47:09;;;;;;;2.20;1.40;;;21.80;47.60;;;;;;4957771;28;20027;-64
2021/01/11 07:49:40;;;;;;;1.75;1.30;;;21.80;47.60;;;;;;4958783;28;20026;-64
2021/01/11 07:52:11;;;;;;;1.98;1.40;;;21.80;47.70;;;;;;4962295;28;20066;-67
2021/01/11 07:54:38;;;;;;;1.73;1.30;;;21.80;47.70;;;;;;4965260;28;20042;-65
2021/01/11 07:57:09;;;;;;;2.47;1.50;;;21.80;47.80;;;;;;4949111;28;20638;-65
2021/01/11 07:59:34;;;;;;;2.13;1.58;;;21.80;47.80;;;;;;4959523;28;20348;-66
2021/01/11 08:02:03;;;;;;;3.08;2.00;;;21.80;47.80;;;;;;4958808;28;20410;-65
2021/01/11 08:04:36;;;;;;;2.45;1.70;;;21.80;47.80;;;;;;4965268;28;20034;-66
2021/01/11 08:07:06;;;;;;;2.30;1.75;;;21.80;47.80;;;;;;4966991;28;20470;-67
2021/01/11 08:09:33;;;;;;;3.03;2.20;;;21.80;47.80;;;;;;4961345;28;20458;-69
2021/01/11 08:12:07;;;;;;;2.80;2.15;;;21.80;47.90;;;;;;4966306;28;20595;-68
2021/01/11 08:14:33;;;;;;;2.90;2.20;;;21.80;47.80;;;;;;4961778;28;20631;-66
2021/01/11 08:17:01;;;;;;;3.60;2.10;;;21.80;47.90;;;;;;4965594;28;20050;-66
2021/01/11 08:19:26;;;;;;;3.15;2.40;;;21.80;47.90;;;;;;4957445;28;20101;-65
2021/01/11 08:22:00;;;;;;;3.38;2.78;;;21.80;47.80;;;;;;4966192;28;20030;-67
2021/01/11 08:24:26;;;;;;;3.70;3.10;;;21.80;47.80;;;;;;4963166;28;20379;-68
2021/01/11 08:27:05;;;;;;;3.50;2.90;;;21.80;47.80;;;;;;4962760;28;20333;-67
2021/01/11 08:29:35;;;;;;;3.80;3.38;;;21.80;47.70;;;;;;4958292;28;20034;-66
2021/01/11 08:32:04;;;;;;;5.03;3.60;;;21.80;47.70;;;;;;4958832;28;20019;-65
2021/01/11 08:34:29;;;;;;;4.40;3.55;;;21.80;47.70;;;;;;4968051;28;20063;-65
2021/01/11 08:36:55;;;;;;;4.10;3.70;;;21.80;47.70;;;;;;4968697;28;20062;-66
2021/01/11 08:39:21;;;;;;;4.40;3.90;;;21.80;47.70;;;;;;4956547;28;20107;-68
2021/01/11 08:41:49;;;;;;;4.40;4.00;;;21.80;47.70;;;;;;4955278;28;20114;-66
2021/01/11 08:44:32;;;;;;;4.70;4.20;;;21.90;47.80;;;;;;4955826;28;20029;-65
2021/01/11 08:47:07;;;;;;;4.50;4.10;;;21.80;47.70;;;;;;4953046;28;20133;-64
2021/01/11 08:49:34;;;;;;;5.00;4.50;;;21.80;47.70;;;;;;4962704;28;20041;-67
2021/01/11 08:52:11;;;;;;;5.50;4.93;;;21.90;47.90;;;;;;4965703;28;20138;-69
2021/01/11 08:54:38;;;;;;;5.32;4.70;;;21.90;47.80;;;;;;4962607;28;20045;-71
2021/01/11 08:57:14;;;;;;;5.55;4.97;;;21.90;47.80;;;;;;4953525;28;20031;-63
2021/01/11 08:59:48;;;;;;;5.40;4.90;;;21.90;47.70;;;;;;4959429;28;20314;-70
2021/01/11 09:02:25;;;;;;;5.38;4.88;;;21.90;47.70;;;;;;4963957;28;20101;-69
2021/01/11 09:04:51;;;;;;;5.00;4.50;;;21.90;47.70;;;;;;4967408;28;20038;-67
2021/01/11 09:07:28;;;;;;;5.22;4.72;;;21.90;47.70;;;;;;4962105;28;20085;-68
2021/01/11 09:09:55;;;;;;;5.82;5.03;;;21.80;47.60;;;;;;4963133;28;20050;-68
2021/01/11 09:12:29;;;;;;;6.20;4.95;;;21.90;47.70;;;;;;4959535;28;20085;-66
2021/01/11 09:14:55;;;;;;;5.50;5.00;;;21.90;47.70;;;;;;4960687;28;20187;-69
2021/01/11 09:17:32;;;;;;;4.97;4.50;;;21.90;47.80;;;;;;4951378;28;20110;-67
2021/01/11 09:20:03;;;;;;;5.40;4.90;;;21.90;47.70;;;;;;4964122;28;20572;-62
2021/01/11 09:22:34;;;;;;;5.50;4.90;;;21.90;47.80;;;;;;4967005;28;20026;-65
2021/01/11 09:25:04;;;;;;;5.70;5.20;;;21.90;47.70;;;;;;4966563;28;20113;-67
2021/01/11 09:27:29;;;;;;;5.10;4.60;;;21.90;47.70;;;;;;4960891;28;20438;-69
2021/01/11 09:29:55;;;;;;;5.20;4.70;;;21.90;47.80;;;;;;4962168;28;20081;-68
2021/01/11 09:32:21;;;;;;;5.25;4.75;;;21.90;47.80;;;;;;4959098;28;20031;-68
2021/01/11 09:34:47;;;;;;;5.38;4.88;;;21.90;47.80;;;;;;4980104;28;20030;-68
2021/01/11 09:37:13;;;;;;;5.00;4.50;;;21.90;47.90;;;;;;4969603;28;20046;-66
2021/01/11 09:39:40;;;;;;;5.43;4.93;;;21.90;47.90;;;;;;4964243;28;20121;-68
2021/01/11 09:42:06;;;;;;;5.43;4.93;;;21.90;47.90;;;;;;4959298;28;20073;-68
2021/01/11 09:44:31;;;;;;;5.50;5.00;;;21.90;47.90;;;;;;4966826;28;20062;-67
2021/01/11 09:46:59;;;;;;;5.57;5.07;;;21.90;47.90;;;;;;4955437;28;20037;-69
2021/01/11 09:49:25;;;;;;;5.15;4.65;;;21.90;47.90;;;;;;4957297;28;20023;-66
2021/01/11 09:51:51;;;;;;;5.47;4.80;;;21.90;47.90;;;;;;4958175;28;20541;-70
2021/01/11 09:54:17;;;;;;;5.40;4.90;;;21.90;47.90;;;;;;4958852;28;20039;-67
2021/01/11 09:56:43;;;;;;;5.55;4.95;;;21.90;47.90;;;;;;4962143;28;20173;-68
2021/01/11 09:59:09;;;;;;;5.30;4.80;;;21.90;47.90;;;;;;4980506;28;20311;-70
2021/01/11 10:01:40;;;;;;;5.32;4.82;;;21.90;48.00;;;;;;4965423;28;20031;-70
2021/01/11 10:04:06;;;;;;;5.07;4.57;;;21.90;48.00;;;;;;4956137;28;20161;-69
2021/01/11 10:06:41;;;;;;;5.43;4.93;;;21.90;48.00;;;;;;4968317;28;20054;-68
2021/01/11 10:09:07;;;;;;;5.93;5.32;;;21.90;48.10;;;;;;4964385;28;20064;-68
2021/01/11 10:11:33;;;;;;;6.30;5.70;;;21.90;48.00;;;;;;4962675;28;20430;-67
2021/01/11 10:14:02;;;;;;;5.72;5.22;;;21.90;47.90;;;;;;4953472;28;20154;-69
2021/01/11 10:16:27;;;;;;;5.63;5.10;;;21.90;47.90;;;;;;4958777;28;20203;-69
2021/01/11 10:18:53;;;;;;;5.97;5.38;;;21.90;47.90;;;;;;4958337;28;20035;-69
2021/01/11 10:21:19;;;;;;;5.32;4.82;;;22.00;47.90;;;;;;4950364;28;20031;-70
2021/01/11 10:23:45;;;;;;;5.35;4.82;;;21.90;47.80;;;;;;4958918;28;20022;-70
2021/01/11 10:26:21;;;;;;;5.43;4.93;;;21.90;47.90;;;;;;4965981;28;20051;-68
2021/01/11 10:28:48;;;;;;;5.78;5.20;;;21.90;47.80;;;;;;4959488;28;20015;-69
2021/01/11 10:31:15;;;;;;;5.55;5.05;;;21.90;47.90;;;;;;4955338;28;20019;-66
2021/01/11 10:33:41;;;;;;;5.25;4.75;;;21.90;47.90;;;;;;4966018;28;20096;-69
2021/01/11 10:36:07;;;;;;;9.10;8.10;;;21.90;48.00;;;;;;4954302;28;20046;-68
2021/01/11 10:38:33;;;;;;;11.38;9.73;;;21.80;36.30;;;;;;4958378;28;20440;-69
2021/01/11 10:40:58;;;;;;;12.25;10.73;;;21.50;30.30;;;;;;4951379;28;20039;-66
2021/01/11 10:43:24;;;;;;;11.52;9.95;;;21.10;28.90;;;;;;4964487;28;20082;-67
2021/01/11 10:45:50;;;;;;;11.75;9.88;;;20.70;29.60;;;;;;4968502;28;20145;-68
2021/01/11 10:48:15;;;;;;;10.18;8.88;;;20.40;29.50;;;;;;4963977;28;20319;-67
2021/01/11 10:50:41;;;;;;;6.85;5.53;;;20.10;30.00;;;;;;4962726;28;20512;-68
2021/01/11 10:53:07;;;;;;;5.97;5.15;;;20.00;35.20;;;;;;4954477;28;20774;-69
2021/01/11 10:55:32;;;;;;;5.72;4.75;;;20.20;37.50;;;;;;4963645;28;20110;-68
2021/01/11 10:57:58;;;;;;;5.03;4.25;;;20.40;39.40;;;;;;4952292;28;20038;-68
2021/01/11 11:00:24;;;;;;;4.82;4.10;;;20.60;40.60;;;;;;4959863;28;20022;-69
2021/01/11 11:02:49;;;;;;;4.85;4.22;;;20.70;42.30;;;;;;4961450;28;20034;-69
2021/01/11 11:05:15;;;;;;;4.57;4.13;;;20.90;42.40;;;;;;4957983;28;20039;-68
2021/01/11 11:07:41;;;;;;;4.72;4.22;;;20.90;43.00;;;;;;4964173;28;20469;-70
2021/01/11 11:10:08;;;;;;;4.57;4.10;;;21.00;43.60;;;;;;4952848;28;20601;-66
2021/01/11 11:12:35;;;;;;;4.50;3.97;;;21.10;44.10;;;;;;4955676;28;20031;-68
2021/01/11 11:15:02;;;;;;;4.78;4.28;;;21.10;44.30;;;;;;4962908;28;20035;-68
2021/01/11 11:17:31;;;;;;;4.47;4.00;;;21.10;44.90;;;;;;4965827;28;20038;-67
2021/01/11 11:19:58;;;;;;;4.65;3.92;;;21.20;45.60;;;;;;4950857;28;20042;-67
2021/01/11 11:22:24;;;;;;;4.53;3.63;;;21.20;45.30;;;;;;4950031;28;20039;-65
2021/01/11 11:24:49;;;;;;;4.13;3.67;;;21.20;45.70;;;;;;4960260;28;20427;-66
2021/01/11 11:27:16;;;;;;;4.03;3.60;;;21.20;45.90;;;;;;4980269;28;20042;-67
2021/01/11 11:29:42;;;;;;;4.93;4.10;;;21.30;45.80;;;;;;4966734;28;20039;-69
2021/01/11 11:32:07;;;;;;;4.88;4.38;;;21.30;45.90;;;;;;4973096;28;20081;-66
2021/01/11 11:34:33;;;;;;;4.80;4.30;;;21.30;45.90;;;;;;4974372;28;20584;-67
2021/01/11 11:36:58;;;;;;;4.47;4.05;;;21.30;46.00;;;;;;4965235;28;20390;-69
2021/01/11 11:39:24;;;;;;;4.88;4.30;;;21.40;46.00;;;;;;4967501;28;20034;-67
2021/01/11 11:41:55;;;;;;;4.30;3.90;;;21.40;46.10;;;;;;4969975;28;20027;-67
2021/01/11 11:44:21;;;;;;;4.78;4.28;;;21.40;46.20;;;;;;4976313;28;20063;-67
2021/01/11 11:46:47;;;;;;;4.82;4.32;;;21.40;46.30;;;;;;4969345;28;20090;-68
2021/01/11 11:49:12;;;;;;;4.90;4.20;;;21.40;46.30;;;;;;4958299;28;20038;-69
2021/01/11 11:51:42;;;;;;;4.20;3.78;;;21.40;46.40;;;;;;4969033;28;20030;-67
2021/01/11 11:54:08;;;;;;;4.50;3.97;;;21.40;46.50;;;;;;4959987;28;20437;-67
2021/01/11 11:56:34;;;;;;;3.97;3.58;;;21.40;46.60;;;;;;4962592;28;20034;-67
2021/01/11 11:58:59;;;;;;;4.43;3.97;;;21.40;46.90;;;;;;4958708;28;20039;-68
2021/01/11 12:01:25;;;;;;;4.15;3.47;;;21.40;46.70;;;;;;4957428;28;20039;-69
2021/01/11 12:03:50;;;;;;;4.63;4.00;;;21.40;46.80;;;;;;4958529;28;20031;-68
2021/01/11 12:06:16;;;;;;;4.53;4.10;;;21.50;47.00;;;;;;4961117;28;20039;-67
2021/01/11 12:08:42;;;;;;;4.35;3.95;;;21.50;47.50;;;;;;4958168;28;20019;-68
2021/01/11 12:11:07;;;;;;;4.35;3.75;;;21.50;47.10;;;;;;4957448;28;20062;-67
2021/01/11 12:13:33;;;;;;;5.10;4.13;;;21.50;47.10;;;;;;4954568;28;20055;-68
2021/01/11 12:15:59;;;;;;;4.47;3.97;;;21.50;47.10;;;;;;4959358;28;20437;-69
2021/01/11 12:18:24;;;;;;;4.97;4.35;;;21.50;47.10;;;;;;4962799;28;20164;-69
2021/01/11 12:20:50;;;;;;;5.20;4.35;;;21.50;47.10;;;;;;4959410;28;20122;-70
2021/01/11 12:23:16;;;;;;;5.45;4.80;;;21.50;47.10;;;;;;4960262;28;20059;-69
2021/01/11 12:25:41;;;;;;;5.22;4.53;;;21.50;47.10;;;;;;4959873;28;20629;-71
2021/01/11 12:28:07;;;;;;;4.93;4.38;;;21.50;47.20;;;;;;4964247;28;20038;-66
2021/01/11 12:30:33;;;;;;;5.50;4.63;;;21.60;47.30;;;;;;4959572;28;20030;-68
2021/01/11 12:32:58;;;;;;;5.38;4.07;;;21.50;47.20;;;;;;4956879;28;20034;-67
2021/01/11 12:35:24;;;;;;;5.07;4.53;;;21.60;47.40;;;;;;4967407;28;20035;-67
2021/01/11 12:37:49;;;;;;;5.28;4.70;;;21.60;47.40;;;;;;4965513;28;20037;-68
2021/01/11 12:40:15;;;;;;;5.10;4.55;;;21.60;47.40;;;;;;4966464;28;20472;-68
2021/01/11 12:42:41;;;;;;;5.68;4.40;;;21.60;47.40;;;;;;4966186;28;20027;-70
2021/01/11 12:45:07;;;;;;;5.28;4.70;;;21.60;47.40;;;;;;4964607;28;20050;-68
2021/01/11 12:47:39;;;;;;;5.30;4.72;;;21.60;47.30;;;;;;4973875;28;20119;-68
2021/01/11 12:50:06;;;;;;;6.57;4.80;;;21.60;47.30;;;;;;4959225;28;20070;-68
2021/01/11 12:52:32;;;;;;;5.32;4.20;;;21.60;47.30;;;;;;4964836;28;20121;-69
2021/01/11 12:54:57;;;;;;;5.63;4.32;;;21.70;47.40;;;;;;4956880;28;20129;-68